Time;durP1;ratioP1;P1;durP2;ratioP2;P2;SDS_P1;SDS_P2;PMS_P1;PMS_P2;Temp;Humidity;BMP_temperature;BMP_pressure;BME280_temperature;BME280_humidity;BME280_pressure;Samples;Min_cycle;Max_cycle;Signal;HPM_P1;HPM_P2
2024/01/17 00:01:57;;;;;;;15.10;8.30;;;;;;;4.14;61.02;99831.69;4955658;29;20396;-21
2024/01/17 00:04:23;;;;;;;17.20;8.27;;;;;;;4.06;61.99;99830.66;4955344;29;20484;-21
2024/01/17 00:06:49;;;;;;;13.75;7.80;;;;;;;3.83;62.28;99822.53;4955541;29;20055;-24
2024/01/17 00:09:15;;;;;;;14.07;7.65;;;;;;;4.21;62.10;99830.88;4955305;29;20062;-22
2024/01/17 00:11:42;;;;;;;12.65;7.03;;;;;;;3.92;62.65;99815.47;4955027;29;20166;-20
2024/01/17 00:14:07;;;;;;;15.75;8.25;;;;;;;3.94;63.29;99828.47;4955005;29;20404;-21
2024/01/17 00:16:33;;;;;;;14.93;8.30;;;;;;;3.92;63.08;99815.47;4937766;29;20029;-23
2024/01/17 00:18:58;;;;;;;14.52;7.93;;;;;;;4.03;62.63;99822.25;4955358;29;20101;-21
2024/01/17 00:21:23;;;;;;;15.23;8.25;;;;;;;3.67;62.84;99791.66;4955321;29;20023;-22
2024/01/17 00:23:49;;;;;;;15.38;8.07;;;;;;;3.79;63.69;99821.19;4955196;29;20019;-23
2024/01/17 00:26:14;;;;;;;17.77;9.40;;;;;;;3.57;64.29;99817.28;4955558;29;20019;-23
2024/01/17 00:28:40;;;;;;;18.42;9.05;;;;;;;3.78;64.00;99827.41;4954536;28;20538;-22
2024/01/17 00:31:06;;;;;;;16.23;8.80;;;;;;;3.89;63.20;99826.31;4955176;29;20090;-23
2024/01/17 00:33:31;;;;;;;15.82;8.02;;;;;;;3.90;63.07;99822.69;4954803;29;20480;-23
2024/01/17 00:35:56;;;;;;;17.25;8.10;;;;;;;3.85;62.98;99825.81;4955128;29;20127;-21
2024/01/17 00:38:22;;;;;;;21.20;7.78;;;;;;;4.04;62.42;99818.66;4954930;29;20027;-22
2024/01/17 00:40:47;;;;;;;14.00;7.93;;;;;;;4.10;61.98;99821.47;4955026;29;20035;-23
2024/01/17 00:43:12;;;;;;;18.77;8.38;;;;;;;4.22;61.32;99829.88;4954845;29;20467;-21
2024/01/17 00:45:38;;;;;;;17.88;8.25;;;;;;;3.94;62.28;99826.69;4955191;29;20035;-23
2024/01/17 00:48:03;;;;;;;19.50;8.50;;;;;;;4.02;61.87;99829.34;4955015;29;20034;-21
2024/01/17 00:50:29;;;;;;;16.33;8.30;;;;;;;4.36;60.61;99823.19;4954839;29;20023;-23
2024/01/17 00:52:54;;;;;;;16.60;8.73;;;;;;;4.07;61.34;99829.69;4954527;29;20031;-22
2024/01/17 00:55:20;;;;;;;17.10;7.70;;;;;;;3.62;62.82;99825.53;4954736;29;20027;-20
2024/01/17 00:57:45;;;;;;;14.35;7.72;;;;;;;3.37;64.30;99813.22;4954746;29;20031;-22
2024/01/17 01:00:11;;;;;;;14.15;8.05;;;;;;;3.18;64.43;99812.44;4954649;29;20031;-22
2024/01/17 01:02:36;;;;;;;14.52;7.68;;;;;;;3.31;64.71;99812.03;4954716;29;20031;-23
2024/01/17 01:05:02;;;;;;;13.40;7.53;;;;;;;3.30;65.02;99819.09;4954249;29;20166;-21
2024/01/17 01:07:27;;;;;;;17.40;8.77;;;;;;;3.23;64.83;99823.31;4954469;29;20039;-22
2024/01/17 01:09:53;;;;;;;15.95;7.88;;;;;;;3.12;65.79;99821.78;4954424;29;20035;-21
2024/01/17 01:12:18;;;;;;;16.90;8.02;;;;;;;3.16;65.07;99831.97;4954303;29;20031;-22
2024/01/17 01:14:43;;;;;;;16.13;9.02;;;;;;;3.32;64.59;99845.25;4954073;29;20035;-21
2024/01/17 01:17:09;;;;;;;27.92;11.70;;;;;;;3.18;66.20;99844.00;4953894;29;20055;-21
2024/01/17 01:19:35;;;;;;;21.33;9.82;;;;;;;3.23;66.00;99844.34;4953786;29;20425;-22
2024/01/17 01:22:01;;;;;;;26.17;11.32;;;;;;;3.19;65.62;99839.56;4954026;29;20023;-21
2024/01/17 01:24:26;;;;;;;23.60;10.52;;;;;;;3.09;65.93;99851.00;4954038;29;20114;-20
2024/01/17 01:26:52;;;;;;;22.70;10.55;;;;;;;3.33;65.51;99842.47;4954307;29;20027;-23
2024/01/17 01:29:17;;;;;;;23.70;10.63;;;;;;;3.04;65.59;99839.28;4953631;29;20510;-21
2024/01/17 01:31:42;;;;;;;21.05;10.20;;;;;;;2.87;66.51;99826.00;4953613;29;20058;-22
2024/01/17 01:34:08;;;;;;;24.42;10.52;;;;;;;3.02;66.63;99833.34;4953768;29;20027;-21
2024/01/17 01:36:33;;;;;;;21.75;10.07;;;;;;;3.10;65.49;99825.53;4953871;29;20660;-22
2024/01/17 01:38:59;;;;;;;19.10;10.05;;;;;;;3.12;66.03;99827.03;4953698;28;20447;-22
2024/01/17 01:41:25;;;;;;;19.58;9.57;;;;;;;2.81;66.73;99831.88;4952984;29;20114;-21
2024/01/17 01:43:50;;;;;;;29.95;13.38;;;;;;;2.74;67.89;99838.69;4953468;29;20130;-22
2024/01/17 01:46:34;;;;;;;24.50;12.55;;;;;;;2.71;67.50;99834.56;4953775;29;20035;-20
2024/01/17 01:49:00;;;;;;;18.35;10.27;;;;;;;3.04;67.26;99831.41;4953546;29;20034;-21
2024/01/17 01:51:26;;;;;;;23.38;10.48;;;;;;;2.99;66.50;99831.88;4953321;29;20400;-21
2024/01/17 01:53:57;;;;;;;19.67;9.60;;;;;;;2.79;68.51;99828.56;4953570;29;20357;-22
2024/01/17 01:56:26;;;;;;;24.60;10.85;;;;;;;2.74;67.57;99802.75;4953693;29;20031;-21
2024/01/17 01:58:53;;;;;;;24.00;12.00;;;;;;;3.01;66.40;99810.66;4953628;29;20034;-21
2024/01/17 02:01:20;;;;;;;19.83;10.20;;;;;;;2.80;66.79;99806.56;4953337;29;20038;-21
2024/01/17 02:03:46;;;;;;;18.45;9.43;;;;;;;2.63;68.19;99804.78;4953112;29;20145;-20
2024/01/17 02:06:13;;;;;;;16.55;9.18;;;;;;;2.73;67.39;99805.53;4952527;29;20110;-23
2024/01/17 02:08:39;;;;;;;20.75;9.82;;;;;;;2.69;67.54;99804.19;4951188;29;20090;-20
2024/01/17 02:11:05;;;;;;;19.63;10.07;;;;;;;2.72;67.88;99799.44;4941907;29;20022;-20
2024/01/17 02:13:30;;;;;;;20.30;10.48;;;;;;;2.75;68.69;99816.72;4941925;29;20395;-23
2024/01/17 02:15:56;;;;;;;22.20;10.73;;;;;;;2.73;67.94;99816.03;4943315;29;20562;-23
2024/01/17 02:18:22;;;;;;;20.90;10.07;;;;;;;2.83;67.76;99805.44;4941217;29;20098;-24
2024/01/17 02:20:48;;;;;;;21.08;10.52;;;;;;;2.83;67.78;99808.88;4941306;29;20050;-23
2024/01/17 02:23:27;;;;;;;18.50;10.10;;;;;;;2.73;67.67;99803.72;4944963;29;20050;-21
2024/01/17 02:25:54;;;;;;;19.55;10.07;;;;;;;2.88;67.82;99805.81;4943649;29;20033;-21
2024/01/17 02:28:19;;;;;;;22.15;10.13;;;;;;;3.00;67.54;99814.28;4945801;29;20031;-23
2024/01/17 02:30:45;;;;;;;24.63;10.48;;;;;;;2.85;67.31;99820.06;4952667;29;20484;-21
2024/01/17 02:33:12;;;;;;;18.38;9.55;;;;;;;2.68;67.29;99798.06;4939165;29;20042;-23
2024/01/17 02:35:38;;;;;;;17.80;9.43;;;;;;;2.83;67.30;99813.31;4933772;29;20035;-21
2024/01/17 02:38:04;;;;;;;17.90;9.77;;;;;;;2.80;67.33;99811.84;4933864;29;20491;-23
2024/01/17 02:40:29;;;;;;;20.45;9.65;;;;;;;2.70;68.68;99816.31;4933829;29;20153;-23
2024/01/17 02:42:55;;;;;;;19.45;9.43;;;;;;;2.64;67.54;99827.44;4933864;29;20035;-21
2024/01/17 02:45:21;;;;;;;19.63;10.90;;;;;;;2.58;68.32;99823.59;4933817;29;20047;-22
2024/01/17 02:47:46;;;;;;;23.45;10.35;;;;;;;2.72;68.44;99827.50;4933580;29;20516;-23
2024/01/17 02:50:14;;;;;;;22.70;10.43;;;;;;;2.39;68.77;99823.75;4934300;29;20072;-21
2024/01/17 02:52:41;;;;;;;19.60;11.18;;;;;;;2.51;69.17;99822.56;4920627;29;20035;-25
2024/01/17 02:55:08;;;;;;;23.15;11.18;;;;;;;2.59;68.36;99821.81;4937887;29;20111;-23
2024/01/17 02:57:33;;;;;;;19.42;10.18;;;;;;;2.79;68.00;99830.38;4937902;29;20160;-20
2024/01/17 02:59:59;;;;;;;20.02;10.30;;;;;;;2.51;68.41;99833.91;4937391;29;20039;-22
2024/01/17 03:02:24;;;;;;;21.48;10.82;;;;;;;2.62;68.83;99827.59;4937432;29;20111;-20
2024/01/17 03:04:50;;;;;;;21.42;10.75;;;;;;;2.62;68.76;99832.03;4949918;29;20072;-22
2024/01/17 03:07:15;;;;;;;19.50;10.23;;;;;;;2.56;68.62;99832.63;4956431;29;20130;-19
2024/01/17 03:09:41;;;;;;;21.83;11.02;;;;;;;2.64;68.54;99811.69;4956158;29;20031;-22
2024/01/17 03:12:06;;;;;;;23.88;11.57;;;;;;;2.50;68.83;99813.03;4956156;29;20053;-27
2024/01/17 03:14:32;;;;;;;20.80;11.13;;;;;;;2.49;69.17;99809.56;4956519;29;20371;-25
2024/01/17 03:17:00;;;;;;;20.40;10.93;;;;;;;2.76;67.34;99810.50;4956118;29;20039;-25
2024/01/17 03:19:26;;;;;;;22.70;11.67;;;;;;;2.53;68.33;99796.94;4956713;29;20030;-26
2024/01/17 03:21:51;;;;;;;24.15;11.85;;;;;;;2.76;67.54;99796.50;4956454;29;20458;-26
2024/01/17 03:24:17;;;;;;;22.80;11.68;;;;;;;2.56;68.87;99799.28;4956505;29;20136;-25
2024/01/17 03:26:42;;;;;;;21.33;11.13;;;;;;;2.48;68.21;99794.78;4956393;29;20082;-26
2024/01/17 03:29:07;;;;;;;19.83;11.43;;;;;;;2.15;70.11;99796.25;4956448;29;20031;-25
2024/01/17 03:31:33;;;;;;;22.48;11.13;;;;;;;2.30;69.52;99807.06;4956201;29;20404;-26
2024/01/17 03:33:58;;;;;;;18.13;10.40;;;;;;;2.22;69.57;99793.88;4956249;29;20101;-25
2024/01/17 03:36:23;;;;;;;20.20;10.07;;;;;;;2.15;69.45;99791.00;4956590;29;20058;-26
2024/01/17 03:38:49;;;;;;;20.98;10.95;;;;;;;2.10;70.19;99801.13;4956097;29;20051;-25
2024/01/17 03:41:14;;;;;;;24.58;11.30;;;;;;;1.96;70.67;99805.06;4956138;29;20054;-26
2024/01/17 03:43:39;;;;;;;21.65;11.55;;;;;;;2.08;70.23;99803.09;4955844;29;20404;-26
2024/01/17 03:46:05;;;;;;;24.90;11.38;;;;;;;2.14;69.84;99815.63;4955787;29;20085;-26
2024/01/17 03:48:30;;;;;;;19.92;11.23;;;;;;;1.98;71.14;99818.03;4955643;29;20055;-26
2024/01/17 03:50:55;;;;;;;21.73;11.05;;;;;;;2.26;68.74;99819.66;4955723;29;20071;-26
2024/01/17 03:53:21;;;;;;;20.20;10.23;;;;;;;2.13;69.44;99820.03;4955716;29;20023;-26
2024/01/17 03:55:46;;;;;;;18.08;10.18;;;;;;;1.98;69.92;99829.38;4938815;29;20102;-26
2024/01/17 03:58:11;;;;;;;23.13;10.77;;;;;;;1.95;70.90;99837.53;4955810;29;20684;-26
2024/01/17 04:00:37;;;;;;;18.38;10.15;;;;;;;1.94;71.16;99847.22;4955300;29;20039;-26
2024/01/17 04:03:02;;;;;;;16.05;9.73;;;;;;;1.98;70.84;99839.03;4954560;28;20034;-25
2024/01/17 04:05:28;;;;;;;20.65;9.77;;;;;;;1.75;71.43;99848.13;4938344;29;20341;-26
2024/01/17 04:07:53;;;;;;;25.23;11.05;;;;;;;2.17;70.55;99854.72;4955157;29;20038;-26
2024/01/17 04:10:18;;;;;;;20.15;10.38;;;;;;;1.82;70.71;99856.25;4955210;29;20165;-41
2024/01/17 04:12:44;;;;;;;20.13;10.70;;;;;;;1.98;71.02;99855.63;4955536;29;20063;-26
2024/01/17 04:15:09;;;;;;;20.38;10.68;;;;;;;2.08;69.61;99864.28;4955648;29;20050;-26
2024/01/17 04:17:35;;;;;;;23.85;11.55;;;;;;;2.04;71.25;99878.69;4939108;29;20465;-36
2024/01/17 04:20:02;;;;;;;18.92;10.07;;;;;;;2.04;69.97;99873.44;4942711;29;20051;-41
2024/01/17 04:22:28;;;;;;;19.58;10.23;;;;;;;1.77;70.26;99866.31;4944871;29;20110;-40
2024/01/17 04:24:53;;;;;;;23.50;10.50;;;;;;;1.79;70.65;99874.06;4946034;29;20453;-39
2024/01/17 04:27:20;;;;;;;19.33;10.10;;;;;;;1.69;71.47;99867.03;4953539;29;20054;-40
2024/01/17 04:29:45;;;;;;;22.77;10.02;;;;;;;1.68;71.18;99875.09;4955295;29;20042;-39
2024/01/17 04:32:11;;;;;;;19.30;10.50;;;;;;;1.48;71.10;99869.03;4955248;29;20051;-39
2024/01/17 04:34:40;;;;;;;20.33;10.75;;;;;;;1.23;72.05;99873.09;4955595;29;20129;-39
2024/01/17 04:37:05;;;;;;;22.77;11.68;;;;;;;1.32;72.72;99872.25;4955157;29;20027;-41
2024/01/17 04:39:31;;;;;;;22.80;11.57;;;;;;;1.18;72.83;99870.88;4954658;29;20390;-38
2024/01/17 04:41:56;;;;;;;23.95;11.45;;;;;;;1.16;73.23;99867.56;4954662;29;20082;-37
2024/01/17 04:44:22;;;;;;;25.08;12.45;;;;;;;1.14;73.51;99872.97;4955007;29;20035;-40
2024/01/17 04:46:47;;;;;;;34.08;12.20;;;;;;;1.28;79.34;99869.09;4954695;29;20031;-40
2024/01/17 04:49:13;;;;;;;24.58;11.98;;;;;;;1.25;73.23;99873.78;4955329;29;20102;-38
2024/01/17 04:51:38;;;;;;;22.98;10.95;;;;;;;1.29;72.71;99872.53;4955151;29;20369;-36
2024/01/17 04:54:03;;;;;;;26.90;11.93;;;;;;;1.19;72.28;99879.59;4954930;29;20082;-38
2024/01/17 04:56:29;;;;;;;22.98;11.18;;;;;;;0.87;74.13;99875.47;4954017;29;20035;-38
2024/01/17 04:58:54;;;;;;;19.73;10.68;;;;;;;0.99;73.52;99884.84;4954401;29;20062;-25
2024/01/17 05:01:20;;;;;;;20.58;10.93;;;;;;;0.79;73.99;99886.63;4954616;29;20038;-26
2024/01/17 05:03:45;;;;;;;22.23;11.57;;;;;;;0.71;74.42;99897.78;4954777;29;20559;-43
2024/01/17 05:06:11;;;;;;;28.17;12.68;;;;;;;0.86;74.53;99905.25;4937235;29;20027;-38
2024/01/17 05:08:36;;;;;;;26.38;12.20;;;;;;;0.84;74.26;99905.41;4954561;29;20035;-40
2024/01/17 05:11:01;;;;;;;25.17;11.63;;;;;;;0.94;73.70;99908.00;4953754;29;20544;-38
2024/01/17 05:13:28;;;;;;;24.35;12.63;;;;;;;1.17;73.57;99898.91;4953158;29;20027;-40
2024/01/17 05:15:53;;;;;;;36.20;13.23;;;;;;;1.14;73.90;99898.34;4953015;28;20054;-40
2024/01/17 05:18:18;;;;;;;27.27;13.00;;;;;;;1.14;73.61;99904.44;4953221;29;20468;-37
2024/01/17 05:20:44;;;;;;;24.83;13.10;;;;;;;1.11;73.74;99903.88;4953105;29;20471;-39
2024/01/17 05:23:09;;;;;;;30.80;14.63;;;;;;;1.04;75.04;99913.25;4952954;29;20114;-39
2024/01/17 05:25:35;;;;;;;31.75;14.93;;;;;;;1.21;77.10;99917.81;4953484;29;20031;-25
2024/01/17 05:28:00;;;;;;;25.83;13.98;;;;;;;1.14;74.28;99922.78;4954212;29;20133;-27
2024/01/17 05:30:26;;;;;;;33.20;15.15;;;;;;;0.98;74.00;99917.25;4953767;29;20053;-26
2024/01/17 05:32:53;;;;;;;30.25;15.13;;;;;;;0.80;74.36;99911.88;4953134;29;20043;-27
2024/01/17 05:35:20;;;;;;;42.35;16.20;;;;;;;0.98;75.31;99925.13;4954003;29;20023;-27
2024/01/17 05:37:46;;;;;;;33.75;14.68;;;;;;;0.71;75.07;99931.03;4952897;29;20571;-26
2024/01/17 05:40:12;;;;;;;29.88;15.23;;;;;;;0.81;75.45;99941.50;4936229;29;20064;-26
2024/01/17 05:42:39;;;;;;;32.45;14.63;;;;;;;0.98;75.26;99936.41;4953522;29;20062;-28
2024/01/17 05:45:07;;;;;;;34.88;16.17;;;;;;;0.82;76.34;99945.78;4953685;29;20039;-26
2024/01/17 05:47:37;;;;;;;31.83;16.20;;;;;;;0.82;75.00;99937.91;4953477;29;20035;-25
2024/01/17 05:50:09;;;;;;;43.30;16.25;;;;;;;1.21;75.28;99937.97;4952968;29;20035;-26
2024/01/17 05:52:52;;;;;;;46.83;15.20;;;;;;;0.99;75.04;99934.66;4953398;29;20027;-26
2024/01/17 05:55:20;;;;;;;29.55;14.20;;;;;;;0.73;76.10;99937.78;4953655;29;20027;-26
2024/01/17 05:57:45;;;;;;;32.38;12.68;;;;;;;0.80;75.30;99945.09;4953924;29;20027;-27
2024/01/17 06:00:12;;;;;;;26.33;12.95;;;;;;;0.78;75.18;99947.84;4953680;29;20034;-26
2024/01/17 06:02:41;;;;;;;28.75;15.32;;;;;;;0.61;77.11;99961.59;4953188;29;20090;-26
2024/01/17 06:05:07;;;;;;;30.25;15.73;;;;;;;0.62;77.27;99945.75;4953989;29;20030;-27
2024/01/17 06:07:33;;;;;;;38.25;16.67;;;;;;;0.90;76.48;99952.00;4953859;29;20035;-30
2024/01/17 06:09:58;;;;;;;35.25;17.35;;;;;;;1.27;76.15;99955.75;4953396;29;20448;-26
2024/01/17 06:12:24;;;;;;;31.27;15.55;;;;;;;1.33;75.95;99929.81;4952638;29;20023;-27
2024/01/17 06:14:49;;;;;;;29.40;13.70;;;;;;;1.90;73.62;99948.19;4953509;29;20086;-27
2024/01/17 06:17:15;;;;;;;37.25;15.55;;;;;;;1.85;73.50;99934.69;4953947;29;20101;-26
2024/01/17 06:19:41;;;;;;;31.65;15.80;;;;;;;2.22;72.53;99948.81;4953809;29;20070;-26
2024/01/17 06:22:10;;;;;;;43.03;15.13;;;;;;;1.83;73.49;99955.00;4953334;29;20110;-26
2024/01/17 06:24:36;;;;;;;36.05;15.10;;;;;;;1.89;74.11;99951.00;4953634;29;20059;-27
2024/01/17 06:27:02;;;;;;;30.45;15.25;;;;;;;2.08;73.29;99955.34;4953449;29;20062;-27
2024/01/17 06:29:33;;;;;;;32.33;15.13;;;;;;;1.92;73.25;99954.16;4939243;29;20083;-40
2024/01/17 06:31:59;;;;;;;39.75;15.32;;;;;;;2.38;72.96;99969.19;4934047;29;20058;-38
2024/01/17 06:34:25;;;;;;;33.10;15.23;;;;;;;2.98;71.08;99963.47;4944312;29;20031;-42
2024/01/17 06:36:50;;;;;;;26.38;14.90;;;;;;;3.49;75.32;99967.22;4952790;29;20511;-37
2024/01/17 06:39:16;;;;;;;29.27;14.52;;;;;;;5.48;90.00;99990.66;4953440;29;20036;-27
2024/01/17 06:41:42;;;;;;;27.38;15.15;;;;;;;6.70;77.50;99984.50;4953823;29;20035;-27
2024/01/17 06:44:09;;;;;;;32.53;15.63;;;;;;;6.84;73.17;99979.31;4953620;29;20035;-27
2024/01/17 06:46:35;;;;;;;30.88;15.10;;;;;;;6.40;60.20;99979.00;4953328;29;20369;-26
2024/01/17 06:49:01;;;;;;;29.98;15.57;;;;;;;6.52;59.87;99961.78;4953625;29;20094;-27
2024/01/17 06:51:26;;;;;;;27.75;14.43;;;;;;;7.79;65.87;99975.50;4953544;29;20035;-26
2024/01/17 06:53:52;;;;;;;33.45;16.17;;;;;;;7.41;60.30;99985.25;4953635;29;20413;-26
2024/01/17 06:56:17;;;;;;;30.77;16.38;;;;;;;7.13;57.03;99988.41;4953266;29;20030;-26
2024/01/17 06:58:43;;;;;;;30.52;15.15;;;;;;;6.60;60.13;99987.34;4953054;29;20031;-27
2024/01/17 07:01:09;;;;;;;27.38;15.23;;;;;;;7.22;60.89;99989.19;4952717;29;20031;-28
2024/01/17 07:03:35;;;;;;;27.52;14.80;;;;;;;8.43;52.63;99994.59;4952467;29;20423;-27
2024/01/17 07:06:00;;;;;;;24.02;14.20;;;;;;;8.16;50.89;99995.00;4952558;29;20042;-27
2024/01/17 07:08:26;;;;;;;25.73;14.15;;;;;;;7.03;54.51;99998.41;4952655;29;20114;-27
2024/01/17 07:10:51;;;;;;;22.45;13.40;;;;;;;6.98;52.92;100004.19;4952753;29;20058;-26
2024/01/17 07:13:17;;;;;;;25.17;13.57;;;;;;;6.43;54.61;100005.09;4952470;29;20023;-27
2024/01/17 07:15:42;;;;;;;19.98;12.23;;;;;;;7.32;58.50;99987.13;4952300;29;20034;-27
2024/01/17 07:18:07;;;;;;;28.85;12.38;;;;;;;8.29;49.72;99991.72;4952406;29;20264;-27
2024/01/17 07:20:33;;;;;;;23.65;12.02;;;;;;;7.75;50.32;99984.81;4952555;29;20031;-27
2024/01/17 07:22:58;;;;;;;20.60;12.10;;;;;;;8.01;53.86;99983.56;4952539;29;20027;-26
2024/01/17 07:25:23;;;;;;;21.48;12.18;;;;;;;8.41;48.81;99987.66;4952578;29;20553;-26
2024/01/17 07:27:49;;;;;;;20.45;12.13;;;;;;;9.39;47.34;99985.50;4953065;29;20054;-26
2024/01/17 07:30:15;;;;;;;25.60;12.30;;;;;;;9.20;45.87;99983.50;4953169;29;20035;-27
2024/01/17 07:32:41;;;;;;;18.70;10.15;;;;;;;9.08;44.72;99984.97;4952312;29;20221;-26
2024/01/17 07:35:07;;;;;;;19.20;9.90;;;;;;;8.13;46.97;99971.53;4948118;29;20023;-28
2024/01/17 07:37:32;;;;;;;18.65;10.63;;;;;;;7.24;50.09;99973.94;4933723;29;20115;-27
2024/01/17 07:39:59;;;;;;;20.13;10.70;;;;;;;8.46;48.38;99973.84;4936165;29;20066;-27
2024/01/17 07:42:24;;;;;;;18.63;10.07;;;;;;;7.71;48.32;99975.56;4936488;29;20036;-28
2024/01/17 07:44:49;;;;;;;17.92;10.10;;;;;;;7.56;49.37;99985.31;4936403;29;20027;-27
2024/01/17 07:47:15;;;;;;;17.83;9.75;;;;;;;7.67;50.00;99981.41;4936198;29;20380;-27
2024/01/17 07:49:42;;;;;;;16.55;9.40;;;;;;;8.66;46.70;99978.56;4936397;29;20035;-28
2024/01/17 07:52:07;;;;;;;21.58;10.70;;;;;;;8.34;46.93;99985.88;4936578;29;20035;-26
2024/01/17 07:54:33;;;;;;;22.02;11.25;;;;;;;8.15;47.71;99995.22;4936398;29;20023;-27
2024/01/17 07:56:58;;;;;;;22.85;11.60;;;;;;;8.43;47.44;99982.16;4936341;29;20028;-28
2024/01/17 07:59:24;;;;;;;23.27;10.40;;;;;;;9.75;44.45;99995.25;4936356;29;20464;-28
2024/01/17 08:01:50;;;;;;;22.60;10.77;;;;;;;8.99;45.19;99987.75;4936311;29;20484;-27
2024/01/17 08:04:16;;;;;;;22.85;11.45;;;;;;;7.86;47.12;99959.69;4935600;29;20102;-28
2024/01/17 08:06:43;;;;;;;19.88;11.30;;;;;;;8.05;47.37;99971.59;4936297;29;20491;-28
2024/01/17 08:09:20;;;;;;;19.92;10.85;;;;;;;9.08;46.00;99983.16;4935710;29;20127;-27
2024/01/17 08:11:51;;;;;;;23.40;11.77;;;;;;;8.79;45.97;99986.69;4935905;29;20500;-26
2024/01/17 08:14:17;;;;;;;21.13;12.50;;;;;;;9.15;45.52;99983.22;4935838;29;20024;-26
2024/01/17 08:16:44;;;;;;;30.70;11.73;;;;;;;8.52;46.85;99981.06;4951811;29;20549;-30
2024/01/17 08:19:09;;;;;;;13.82;8.32;;;;;;;9.71;44.06;99987.81;4955171;29;20026;-26
2024/01/17 08:21:34;;;;;;;12.73;7.03;;;;;;;9.85;42.67;99986.13;4955174;29;20019;-28
2024/01/17 08:24:00;;;;;;;13.73;8.00;;;;;;;9.29;43.59;99977.03;4955163;29;20038;-27
2024/01/17 08:26:26;;;;;;;14.68;8.70;;;;;;;8.82;44.85;99977.56;4955088;29;20115;-27
2024/01/17 08:28:51;;;;;;;15.73;8.30;;;;;;;9.26;44.97;99965.97;4954932;29;20031;-28
2024/01/17 08:31:17;;;;;;;20.27;8.35;;;;;;;9.82;43.40;99970.53;4954680;29;20130;-26
2024/01/17 08:33:42;;;;;;;19.50;9.63;;;;;;;9.54;44.23;99960.72;4954815;29;20023;-27
2024/01/17 08:36:08;;;;;;;18.63;9.30;;;;;;;8.99;45.02;99963.88;4954789;29;20027;-27
2024/01/17 08:38:35;;;;;;;14.35;8.13;;;;;;;8.54;45.89;99970.25;4955015;29;20031;-27
2024/01/17 08:41:00;;;;;;;11.77;6.68;;;;;;;8.53;45.30;99964.16;4955012;29;20082;-27
2024/01/17 08:43:25;;;;;;;12.70;7.55;;;;;;;8.50;45.60;99961.03;4954572;29;20023;-28
2024/01/17 08:45:51;;;;;;;13.30;8.07;;;;;;;8.48;46.06;99966.53;4954745;29;20046;-29
2024/01/17 08:48:16;;;;;;;17.30;8.05;;;;;;;8.88;45.81;99968.84;4954598;29;20070;-28
2024/01/17 08:50:41;;;;;;;18.10;8.38;;;;;;;8.87;45.81;99969.84;4954068;28;20019;-26
2024/01/17 08:53:07;;;;;;;15.93;8.40;;;;;;;9.90;43.96;99960.59;4954203;29;20019;-27
2024/01/17 08:55:32;;;;;;;14.23;8.10;;;;;;;10.27;43.00;99971.06;4954426;29;20412;-28
2024/01/17 08:57:57;;;;;;;15.00;7.82;;;;;;;10.12;42.67;99969.31;4954568;29;20066;-27
2024/01/17 09:00:23;;;;;;;14.50;7.85;;;;;;;9.97;43.31;99960.63;4954267;29;20400;-30
2024/01/17 09:02:48;;;;;;;14.90;8.18;;;;;;;9.93;43.20;99962.03;4954532;29;20035;-29
2024/01/17 09:05:14;;;;;;;16.50;8.18;;;;;;;10.40;41.80;99967.69;4954523;29;20030;-27
2024/01/17 09:07:43;;;;;;;13.65;7.82;;;;;;;10.23;41.31;99959.97;4954313;29;20098;-27
2024/01/17 09:10:09;;;;;;;14.90;8.25;;;;;;;9.47;43.12;99949.22;4954262;29;20027;-26
2024/01/17 09:12:34;;;;;;;17.50;8.30;;;;;;;9.14;44.23;99947.06;4954067;29;20034;-27
2024/01/17 09:15:00;;;;;;;11.90;8.18;;;;;;;9.58;44.12;99935.41;4953960;29;20029;-27
2024/01/17 09:17:25;;;;;;;15.23;8.52;;;;;;;10.17;41.95;99929.69;4954124;29;20481;-28
2024/01/17 09:19:50;;;;;;;13.32;8.40;;;;;;;9.98;43.28;99925.88;4953940;29;20039;-29
2024/01/17 09:22:16;;;;;;;13.88;8.10;;;;;;;9.50;44.42;99922.25;4953897;29;20027;-27
2024/01/17 09:24:41;;;;;;;14.23;8.75;;;;;;;9.56;44.05;99911.69;4954270;29;20499;-28
2024/01/17 09:27:07;;;;;;;16.15;8.70;;;;;;;10.08;43.97;99911.41;4953922;29;20078;-28
2024/01/17 09:29:33;;;;;;;14.70;9.05;;;;;;;9.74;43.82;99908.53;4953902;29;20460;-26
2024/01/17 09:32:00;;;;;;;14.20;8.73;;;;;;;9.43;43.83;99905.47;4953745;29;20051;-27
2024/01/17 09:34:27;;;;;;;14.90;8.27;;;;;;;9.26;44.92;99905.72;4953596;29;20103;-27
2024/01/17 09:36:53;;;;;;;15.98;9.40;;;;;;;8.39;46.92;99903.94;4953889;29;20027;-28
2024/01/17 09:39:18;;;;;;;19.70;10.43;;;;;;;9.30;45.99;99904.31;4953702;29;20090;-27
2024/01/17 09:41:44;;;;;;;20.08;11.18;;;;;;;9.24;45.32;99905.09;4953543;29;20041;-27
2024/01/17 09:44:10;;;;;;;24.85;11.82;;;;;;;9.53;45.09;99900.63;4953477;29;20024;-27
2024/01/17 09:46:40;;;;;;;26.17;13.63;;;;;;;9.56;45.02;99906.38;4953546;29;20031;-28
2024/01/17 09:49:06;;;;;;;30.05;13.95;;;;;;;9.39;45.53;99897.84;4953448;29;20110;-27
2024/01/17 09:51:32;;;;;;;22.42;14.00;;;;;;;10.06;46.48;99900.97;4953196;29;20503;-30
2024/01/17 09:54:00;;;;;;;31.35;15.10;;;;;;;10.15;45.37;99881.19;4953457;29;20118;-28
2024/01/17 09:56:28;;;;;;;28.48;14.70;;;;;;;10.21;44.46;99895.53;4953333;29;20093;-28
2024/01/17 09:58:55;;;;;;;35.08;16.98;;;;;;;9.30;44.98;99895.53;4953185;29;20094;-27
2024/01/17 10:01:22;;;;;;;28.40;14.20;;;;;;;9.70;44.11;99888.69;4952703;28;20035;-28
2024/01/17 10:03:51;;;;;;;24.42;14.80;;;;;;;9.35;44.57;99882.50;4953218;29;20110;-28
2024/01/17 10:06:17;;;;;;;26.00;13.75;;;;;;;9.23;44.59;99871.56;4953375;29;20030;-28
2024/01/17 10:08:45;;;;;;;20.27;12.05;;;;;;;9.10;44.75;99879.41;4953100;29;20542;-27
2024/01/17 10:11:10;;;;;;;23.48;12.88;;;;;;;9.15;44.64;99882.31;4953052;29;20554;-29
2024/01/17 10:13:37;;;;;;;27.02;13.38;;;;;;;9.71;44.18;99879.72;4953338;29;20027;-27
2024/01/17 10:16:03;;;;;;;22.27;12.57;;;;;;;9.87;43.77;99875.09;4942149;29;20019;-26
2024/01/17 10:18:31;;;;;;;25.10;13.32;;;;;;;9.86;43.21;99868.13;4934059;29;20050;-28
2024/01/17 10:20:56;;;;;;;24.75;13.52;;;;;;;9.91;44.01;99853.22;4934008;29;20024;-28
2024/01/17 10:23:22;;;;;;;27.33;14.25;;;;;;;9.54;45.31;99849.16;4933862;29;20045;-28
2024/01/17 10:25:47;;;;;;;26.58;13.13;;;;;;;10.20;43.63;99846.00;4933795;29;20035;-27
2024/01/17 10:28:13;;;;;;;25.05;13.10;;;;;;;9.95;43.64;99845.69;4934224;29;20027;-30
2024/01/17 10:30:41;;;;;;;23.65;13.88;;;;;;;9.97;43.33;99839.16;4933496;29;20035;-28
2024/01/17 10:33:07;;;;;;;19.48;13.05;;;;;;;9.79;44.41;99841.53;4933738;29;20072;-27
2024/01/17 10:35:33;;;;;;;24.80;13.90;;;;;;;9.83;43.70;99831.31;4933756;29;20028;-28
2024/01/17 10:37:59;;;;;;;28.45;13.13;;;;;;;10.26;43.12;99836.41;4933481;29;20087;-28
2024/01/17 10:40:24;;;;;;;23.50;12.65;;;;;;;10.20;43.54;99838.03;4933725;29;20503;-27
2024/01/17 10:43:10;;;;;;;24.80;12.57;;;;;;;9.88;44.57;99836.84;4933725;29;20110;-30
2024/01/17 10:45:39;;;;;;;17.15;10.10;;;;;;;9.68;45.21;99829.59;4934003;29;20031;-30
2024/01/17 10:48:06;;;;;;;15.52;10.10;;;;;;;10.13;45.00;99813.28;4933776;29;20496;-30
2024/01/17 10:50:32;;;;;;;17.88;9.93;;;;;;;10.40;43.52;99805.41;4933829;29;20126;-27
2024/01/17 10:53:03;;;;;;;15.73;9.93;;;;;;;11.06;43.12;99791.34;4933579;29;20429;-27
2024/01/17 10:55:32;;;;;;;18.05;10.50;;;;;;;10.87;43.06;99777.00;4933546;29;20031;-28
2024/01/17 10:58:01;;;;;;;18.65;9.50;;;;;;;10.61;43.71;99777.81;4933638;29;20114;-27
2024/01/17 11:00:31;;;;;;;16.35;10.10;;;;;;;11.49;43.42;99783.72;4933667;29;20133;-28
2024/01/17 11:02:59;;;;;;;19.67;10.82;;;;;;;11.23;42.51;99776.59;4933555;29;20136;-27
2024/01/17 11:05:29;;;;;;;20.55;10.50;;;;;;;10.82;42.64;99777.63;4933741;29;20611;-28
2024/01/17 11:07:58;;;;;;;16.48;9.43;;;;;;;11.29;42.50;99765.09;4933649;29;20103;-27
2024/01/17 11:10:25;;;;;;;14.63;10.02;;;;;;;10.99;43.35;99761.25;4933565;29;20117;-29
2024/01/17 11:12:52;;;;;;;16.88;9.77;;;;;;;11.06;43.63;99756.72;4935253;29;20067;-27
2024/01/17 11:15:19;;;;;;;15.50;9.10;;;;;;;11.31;42.36;99765.72;4941615;29;20019;-27
2024/01/17 11:17:45;;;;;;;15.82;8.88;;;;;;;10.44;45.54;99754.25;4956128;29;20065;-27
2024/01/17 11:20:12;;;;;;;15.40;8.95;;;;;;;9.85;45.96;99755.69;4956051;29;20027;-28
2024/01/17 11:22:41;;;;;;;13.88;8.55;;;;;;;9.87;46.56;99743.00;4956012;29;20039;-27